sensor_id;sensor_type;location;lat;lon;timestamp;temperature;humidity
9043;DHT22;4556;49.150;8.808;2023-04-03T08:19:48;6.20;99.90
9043;DHT22;4556;49.150;8.808;2023-04-03T08:22:15;6.30;99.90
9043;DHT22;4556;49.150;8.808;2023-04-03T08:25:09;6.40;99.90
9043;DHT22;4556;49.150;8.808;2023-04-03T08:27:51;5.80;99.90
9043;DHT22;4556;49.150;8.808;2023-04-03T08:30:32;5.70;99.90
9043;DHT22;4556;49.150;8.808;2023-04-03T08:33:03;5.60;99.90
9043;DHT22;4556;49.150;8.808;2023-04-03T08:35:38;5.50;99.90
9043;DHT22;4556;49.150;8.808;2023-04-03T08:38:08;6.10;99.90
9043;DHT22;4556;49.150;8.808;2023-04-03T08:41:04;6.50;99.90
9043;DHT22;4556;49.150;8.808;2023-04-03T08:43:38;6.40;99.90
9043;DHT22;4556;49.150;8.808;2023-04-03T08:46:11;6.30;99.90
9043;DHT22;4556;49.150;8.808;2023-04-03T08:48:41;6.40;99.90
9043;DHT22;4556;49.150;8.808;2023-04-03T08:51:13;6.60;99.90
9043;DHT22;4556;49.150;8.808;2023-04-03T08:53:44;6.60;99.90
9043;DHT22;4556;49.150;8.808;2023-04-03T08:56:14;7.00;99.90
9043;DHT22;4556;49.150;8.808;2023-04-03T08:58:49;6.50;99.90
9043;DHT22;4556;49.150;8.808;2023-04-03T09:01:21;6.60;99.90
9043;DHT22;4556;49.150;8.808;2023-04-03T09:03:49;6.50;99.90
9043;DHT22;4556;49.150;8.808;2023-04-03T09:06:20;6.40;99.90
9043;DHT22;4556;49.150;8.808;2023-04-03T09:08:51;7.40;99.90
9043;DHT22;4556;49.150;8.808;2023-04-03T09:11:23;7.00;99.90
9043;DHT22;4556;49.150;8.808;2023-04-03T09:13:57;6.80;99.90
9043;DHT22;4556;49.150;8.808;2023-04-03T09:16:36;6.60;99.90
9043;DHT22;4556;49.150;8.808;2023-04-03T09:19:13;6.50;99.90
9043;DHT22;4556;49.150;8.808;2023-04-03T09:21:43;6.60;99.90
9043;DHT22;4556;49.150;8.808;2023-04-03T09:24:12;6.40;99.90
9043;DHT22;4556;49.150;8.808;2023-04-03T09:26:44;6.40;99.90
9043;DHT22;4556;49.150;8.808;2023-04-03T09:29:17;6.20;99.90
9043;DHT22;4556;49.150;8.808;2023-04-03T09:31:48;6.40;99.90
9043;DHT22;4556;49.150;8.808;2023-04-03T09:34:20;6.00;99.90
9043;DHT22;4556;49.150;8.808;2023-04-03T09:36:52;5.90;99.90
9043;DHT22;4556;49.150;8.808;2023-04-03T09:39:21;5.90;99.90
9043;DHT22;4556;49.150;8.808;2023-04-03T09:41:57;6.00;99.90
9043;DHT22;4556;49.150;8.808;2023-04-03T09:44:26;6.10;99.90
9043;DHT22;4556;49.150;8.808;2023-04-03T09:46:53;6.20;99.90
9043;DHT22;4556;49.150;8.808;2023-04-03T09:49:21;6.40;99.90
9043;DHT22;4556;49.150;8.808;2023-04-03T09:51:49;6.40;99.90
9043;DHT22;4556;49.150;8.808;2023-04-03T09:54:32;6.10;99.90
9043;DHT22;4556;49.150;8.808;2023-04-03T09:57:06;6.10;99.90
9043;DHT22;4556;49.150;8.808;2023-04-03T09:59:33;6.10;99.90
9043;DHT22;4556;49.150;8.808;2023-04-03T10:02:03;6.10;99.90
9043;DHT22;4556;49.150;8.808;2023-04-03T10:04:38;6.20;99.90
9043;DHT22;4556;49.150;8.808;2023-04-03T10:07:31;6.60;99.90
9043;DHT22;4556;49.150;8.808;2023-04-03T10:09:59;6.60;99.90
9043;DHT22;4556;49.150;8.808;2023-04-03T10:12:27;6.40;99.90
9043;DHT22;4556;49.150;8.808;2023-04-03T10:14:55;6.60;99.90
9043;DHT22;4556;49.150;8.808;2023-04-03T10:17:37;6.50;99.90
9043;DHT22;4556;49.150;8.808;2023-04-03T10:20:27;6.40;99.90
9043;DHT22;4556;49.150;8.808;2023-04-03T10:23:15;6.50;99.90
9043;DHT22;4556;49.150;8.808;2023-04-03T10:25:53;6.50;99.90
9043;DHT22;4556;49.150;8.808;2023-04-03T10:28:31;6.50;99.90
9043;DHT22;4556;49.150;8.808;2023-04-03T10:31:06;6.60;99.90
9043;DHT22;4556;49.150;8.808;2023-04-03T10:33:48;6.60;99.90
9043;DHT22;4556;49.150;8.808;2023-04-03T10:36:24;6.80;99.90
9043;DHT22;4556;49.150;8.808;2023-04-03T10:39:02;7.10;99.90
9043;DHT22;4556;49.150;8.808;2023-04-03T10:41:56;7.00;99.90
9043;DHT22;4556;49.150;8.808;2023-04-03T10:44:47;6.90;99.90
9043;DHT22;4556;49.150;8.808;2023-04-03T10:47:21;7.00;99.90
9043;DHT22;4556;49.150;8.808;2023-04-03T10:49:55;6.80;99.90
9043;DHT22;4556;49.150;8.808;2023-04-03T10:52:31;7.20;99.90
9043;DHT22;4556;49.150;8.808;2023-04-03T10:55:24;7.20;99.90
9043;DHT22;4556;49.150;8.808;2023-04-03T10:57:55;7.10;99.90
9043;DHT22;4556;49.150;8.808;2023-04-03T11:00:30;8.10;99.90
9043;DHT22;4556;49.150;8.808;2023-04-03T11:03:00;6.90;99.90
9043;DHT22;4556;49.150;8.808;2023-04-03T11:05:34;6.90;99.90
9043;DHT22;4556;49.150;8.808;2023-04-03T11:08:11;7.40;99.90
9043;DHT22;4556;49.150;8.808;2023-04-03T11:10:43;6.80;99.90
9043;DHT22;4556;49.150;8.808;2023-04-03T11:13:13;6.70;99.90
9043;DHT22;4556;49.150;8.808;2023-04-03T11:15:43;7.00;99.90
9043;DHT22;4556;49.150;8.808;2023-04-03T11:18:14;6.60;99.90
9043;DHT22;4556;49.150;8.808;2023-04-03T11:20:46;6.60;99.90
9043;DHT22;4556;49.150;8.808;2023-04-03T11:23:21;6.50;99.90
9043;DHT22;4556;49.150;8.808;2023-04-03T11:25:51;7.00;99.90
9043;DHT22;4556;49.150;8.808;2023-04-03T11:28:20;6.90;99.90
9043;DHT22;4556;49.150;8.808;2023-04-03T11:30:50;6.80;99.90
9043;DHT22;4556;49.150;8.808;2023-04-03T11:33:31;6.60;99.90
9043;DHT22;4556;49.150;8.808;2023-04-03T11:36:03;6.60;99.90
9043;DHT22;4556;49.150;8.808;2023-04-03T11:38:37;6.80;99.90
9043;DHT22;4556;49.150;8.808;2023-04-03T11:41:09;6.80;99.90
9043;DHT22;4556;49.150;8.808;2023-04-03T11:43:40;6.80;99.90
9043;DHT22;4556;49.150;8.808;2023-04-03T11:46:08;6.80;99.90
9043;DHT22;4556;49.150;8.808;2023-04-03T11:48:45;7.10;99.90
9043;DHT22;4556;49.150;8.808;2023-04-03T11:51:41;6.60;99.90
9043;DHT22;4556;49.150;8.808;2023-04-03T11:54:35;6.90;99.90
9043;DHT22;4556;49.150;8.808;2023-04-03T12:09:24;6.90;99.90
9043;DHT22;4556;49.150;8.808;2023-04-03T12:18:58;6.70;99.90
9043;DHT22;4556;49.150;8.808;2023-04-03T12:24:34;6.70;99.90
9043;DHT22;4556;49.150;8.808;2023-04-03T12:27:05;6.80;99.90
9043;DHT22;4556;49.150;8.808;2023-04-03T12:29:39;6.80;99.90
9043;DHT22;4556;49.150;8.808;2023-04-03T12:32:21;7.00;99.90
9043;DHT22;4556;49.150;8.808;2023-04-03T12:34:58;6.90;99.90
9043;DHT22;4556;49.150;8.808;2023-04-03T12:37:43;7.00;99.90
9043;DHT22;4556;49.150;8.808;2023-04-03T12:40:17;7.30;99.90
9043;DHT22;4556;49.150;8.808;2023-04-03T12:43:06;7.40;99.90
9043;DHT22;4556;49.150;8.808;2023-04-03T12:45:44;7.60;99.90
9043;DHT22;4556;49.150;8.808;2023-04-03T12:48:15;7.50;99.90
9043;DHT22;4556;49.150;8.808;2023-04-03T12:50:45;7.40;99.90
9043;DHT22;4556;49.150;8.808;2023-04-03T12:53:16;7.30;99.90
9043;DHT22;4556;49.150;8.808;2023-04-03T12:55:43;6.90;99.90
9043;DHT22;4556;49.150;8.808;2023-04-03T12:58:21;7.10;99.90
9043;DHT22;4556;49.150;8.808;2023-04-03T13:01:09;7.60;99.90
9043;DHT22;4556;49.150;8.808;2023-04-03T13:03:52;7.80;99.90
9043;DHT22;4556;49.150;8.808;2023-04-03T13:06:22;8.60;99.90
9043;DHT22;4556;49.150;8.808;2023-04-03T13:08:51;7.50;99.90
9043;DHT22;4556;49.150;8.808;2023-04-03T13:11:25;8.00;99.90
9043;DHT22;4556;49.150;8.808;2023-04-03T13:14:03;7.10;99.90
9043;DHT22;4556;49.150;8.808;2023-04-03T13:16:31;7.30;99.90
9043;DHT22;4556;49.150;8.808;2023-04-03T13:18:59;6.90;99.90
9043;DHT22;4556;49.150;8.808;2023-04-03T13:21:31;7.40;99.90
9043;DHT22;4556;49.150;8.808;2023-04-03T13:24:00;8.20;99.90
9043;DHT22;4556;49.150;8.808;2023-04-03T13:26:32;7.70;99.90
9043;DHT22;4556;49.150;8.808;2023-04-03T13:29:02;7.50;99.90
9043;DHT22;4556;49.150;8.808;2023-04-03T13:31:31;7.40;99.90
9043;DHT22;4556;49.150;8.808;2023-04-03T13:34:04;7.40;99.90
9043;DHT22;4556;49.150;8.808;2023-04-03T13:36:38;7.30;99.90
9043;DHT22;4556;49.150;8.808;2023-04-03T13:39:21;7.20;99.90
9043;DHT22;4556;49.150;8.808;2023-04-03T13:41:50;7.10;99.90
9043;DHT22;4556;49.150;8.808;2023-04-03T13:44:27;7.20;99.90
9043;DHT22;4556;49.150;8.808;2023-04-03T13:46:56;7.60;99.90
9043;DHT22;4556;49.150;8.808;2023-04-03T13:49:35;7.10;99.90
9043;DHT22;4556;49.150;8.808;2023-04-03T13:52:22;7.30;99.90
9043;DHT22;4556;49.150;8.808;2023-04-03T13:54:54;7.30;99.90
9043;DHT22;4556;49.150;8.808;2023-04-03T13:57:31;7.20;99.90
9043;DHT22;4556;49.150;8.808;2023-04-03T13:59:58;7.20;99.90
9043;DHT22;4556;49.150;8.808;2023-04-03T14:02:31;7.80;99.90
9043;DHT22;4556;49.150;8.808;2023-04-03T14:05:00;8.10;99.90
9043;DHT22;4556;49.150;8.808;2023-04-03T14:07:37;7.90;99.90
9043;DHT22;4556;49.150;8.808;2023-04-03T14:10:08;8.40;99.90
9043;DHT22;4556;49.150;8.808;2023-04-03T14:15:28;7.20;99.90
9043;DHT22;4556;49.150;8.808;2023-04-03T14:17:57;7.30;99.90
9043;DHT22;4556;49.150;8.808;2023-04-03T14:20:26;6.70;99.90
9043;DHT22;4556;49.150;8.808;2023-04-03T14:22:54;7.20;99.90
9043;DHT22;4556;49.150;8.808;2023-04-03T14:25:22;7.60;99.90
9043;DHT22;4556;49.150;8.808;2023-04-03T14:27:51;7.70;99.90
9043;DHT22;4556;49.150;8.808;2023-04-03T14:30:22;7.80;99.90
9043;DHT22;4556;49.150;8.808;2023-04-03T14:32:49;7.90;99.90
9043;DHT22;4556;49.150;8.808;2023-04-03T14:35:30;7.70;99.90
9043;DHT22;4556;49.150;8.808;2023-04-03T14:38:05;7.60;99.90
9043;DHT22;4556;49.150;8.808;2023-04-03T14:40:32;7.40;99.90
9043;DHT22;4556;49.150;8.808;2023-04-03T14:42:59;7.60;99.90
9043;DHT22;4556;49.150;8.808;2023-04-03T14:45:26;7.90;99.90
9043;DHT22;4556;49.150;8.808;2023-04-03T14:47:55;8.20;99.90
9043;DHT22;4556;49.150;8.808;2023-04-03T14:50:24;8.30;99.90
9043;DHT22;4556;49.150;8.808;2023-04-03T14:52:54;7.80;99.90
9043;DHT22;4556;49.150;8.808;2023-04-03T14:55:24;7.70;99.90
9043;DHT22;4556;49.150;8.808;2023-04-03T14:57:51;8.00;99.90
9043;DHT22;4556;49.150;8.808;2023-04-03T15:00:21;7.10;99.90
9043;DHT22;4556;49.150;8.808;2023-04-03T15:02:48;6.90;99.90
9043;DHT22;4556;49.150;8.808;2023-04-03T15:05:16;6.80;99.90
9043;DHT22;4556;49.150;8.808;2023-04-03T15:07:47;7.00;99.90
9043;DHT22;4556;49.150;8.808;2023-04-03T15:10:17;7.30;99.90
9043;DHT22;4556;49.150;8.808;2023-04-03T15:12:47;7.40;99.90
9043;DHT22;4556;49.150;8.808;2023-04-03T15:15:17;7.70;99.90
9043;DHT22;4556;49.150;8.808;2023-04-03T15:17:46;7.70;99.90
9043;DHT22;4556;49.150;8.808;2023-04-03T15:20:15;7.50;99.90
9043;DHT22;4556;49.150;8.808;2023-04-03T15:22:43;7.70;99.90
9043;DHT22;4556;49.150;8.808;2023-04-03T15:25:10;8.00;99.90
9043;DHT22;4556;49.150;8.808;2023-04-03T15:27:37;7.50;99.90
9043;DHT22;4556;49.150;8.808;2023-04-03T15:30:11;7.60;99.90
9043;DHT22;4556;49.150;8.808;2023-04-03T15:32:40;7.40;99.90
9043;DHT22;4556;49.150;8.808;2023-04-03T15:35:07;7.40;99.90
9043;DHT22;4556;49.150;8.808;2023-04-03T15:37:34;7.30;99.90
9043;DHT22;4556;49.150;8.808;2023-04-03T15:40:02;7.30;99.90
9043;DHT22;4556;49.150;8.808;2023-04-03T15:42:30;7.30;99.90
9043;DHT22;4556;49.150;8.808;2023-04-03T15:44:57;7.50;99.90
9043;DHT22;4556;49.150;8.808;2023-04-03T15:47:33;7.40;99.90
9043;DHT22;4556;49.150;8.808;2023-04-03T15:50:00;7.50;99.90
9043;DHT22;4556;49.150;8.808;2023-04-03T15:52:32;7.50;99.90
9043;DHT22;4556;49.150;8.808;2023-04-03T15:54:59;7.50;99.90
9043;DHT22;4556;49.150;8.808;2023-04-03T15:57:26;7.40;99.90
9043;DHT22;4556;49.150;8.808;2023-04-03T16:00:27;7.00;99.90
9043;DHT22;4556;49.150;8.808;2023-04-03T16:03:11;7.10;99.90
9043;DHT22;4556;49.150;8.808;2023-04-03T16:05:39;7.20;99.90
9043;DHT22;4556;49.150;8.808;2023-04-03T16:08:06;7.30;99.90
9043;DHT22;4556;49.150;8.808;2023-04-03T16:10:40;8.20;99.90
9043;DHT22;4556;49.150;8.808;2023-04-03T16:13:21;7.00;99.90
9043;DHT22;4556;49.150;8.808;2023-04-03T16:16:03;7.20;99.90
9043;DHT22;4556;49.150;8.808;2023-04-03T16:18:34;7.00;99.90
9043;DHT22;4556;49.150;8.808;2023-04-03T16:21:02;7.40;99.90
9043;DHT22;4556;49.150;8.808;2023-04-03T16:23:50;6.70;99.90
9043;DHT22;4556;49.150;8.808;2023-04-03T16:26:17;6.80;99.90
9043;DHT22;4556;49.150;8.808;2023-04-03T16:28:55;7.20;99.90
9043;DHT22;4556;49.150;8.808;2023-04-03T16:31:26;7.50;99.90
9043;DHT22;4556;49.150;8.808;2023-04-03T16:33:55;6.80;99.90
9043;DHT22;4556;49.150;8.808;2023-04-03T16:36:25;6.80;99.90
9043;DHT22;4556;49.150;8.808;2023-04-03T16:38:52;7.00;99.90
9043;DHT22;4556;49.150;8.808;2023-04-03T16:41:31;7.00;99.90
9043;DHT22;4556;49.150;8.808;2023-04-03T16:44:05;6.60;99.90
9043;DHT22;4556;49.150;8.808;2023-04-03T16:46:33;7.00;99.90
9043;DHT22;4556;49.150;8.808;2023-04-03T16:49:02;6.90;99.90
9043;DHT22;4556;49.150;8.808;2023-04-03T16:51:32;7.00;99.90
9043;DHT22;4556;49.150;8.808;2023-04-03T16:54:01;7.20;99.90
9043;DHT22;4556;49.150;8.808;2023-04-03T16:56:29;6.50;99.90
9043;DHT22;4556;49.150;8.808;2023-04-03T16:59:09;6.40;99.90
9043;DHT22;4556;49.150;8.808;2023-04-03T17:01:53;6.40;99.90
9043;DHT22;4556;49.150;8.808;2023-04-03T17:04:29;6.40;99.90
9043;DHT22;4556;49.150;8.808;2023-04-03T17:07:02;6.40;99.90
9043;DHT22;4556;49.150;8.808;2023-04-03T17:09:38;6.30;99.90
9043;DHT22;4556;49.150;8.808;2023-04-03T17:12:07;6.40;99.90
9043;DHT22;4556;49.150;8.808;2023-04-03T17:14:55;6.20;99.90
9043;DHT22;4556;49.150;8.808;2023-04-03T17:17:24;6.20;99.90
9043;DHT22;4556;49.150;8.808;2023-04-03T17:20:14;6.10;99.90
9043;DHT22;4556;49.150;8.808;2023-04-03T17:23:09;6.10;99.90
9043;DHT22;4556;49.150;8.808;2023-04-03T17:28:42;6.00;99.90
9043;DHT22;4556;49.150;8.808;2023-04-03T17:31:09;6.00;99.90
9043;DHT22;4556;49.150;8.808;2023-04-03T17:33:36;6.50;99.90
9043;DHT22;4556;49.150;8.808;2023-04-03T17:36:05;5.80;99.90
9043;DHT22;4556;49.150;8.808;2023-04-03T17:38:33;5.80;99.90
9043;DHT22;4556;49.150;8.808;2023-04-03T17:41:02;5.70;99.90
9043;DHT22;4556;49.150;8.808;2023-04-03T17:43:30;6.30;99.90
9043;DHT22;4556;49.150;8.808;2023-04-03T17:45:59;5.80;99.90
9043;DHT22;4556;49.150;8.808;2023-04-03T17:48:28;5.60;99.90
9043;DHT22;4556;49.150;8.808;2023-04-03T17:50:55;5.50;99.90
9043;DHT22;4556;49.150;8.808;2023-04-03T17:53:24;6.30;99.90
9043;DHT22;4556;49.150;8.808;2023-04-03T17:55:52;5.40;99.90
9043;DHT22;4556;49.150;8.808;2023-04-03T17:58:19;5.30;99.90
9043;DHT22;4556;49.150;8.808;2023-04-03T18:00:46;5.30;99.90
9043;DHT22;4556;49.150;8.808;2023-04-03T18:03:13;5.20;99.90
9043;DHT22;4556;49.150;8.808;2023-04-03T18:05:45;5.20;99.90
9043;DHT22;4556;49.150;8.808;2023-04-03T18:08:26;5.20;99.90
9043;DHT22;4556;49.150;8.808;2023-04-03T18:10:55;5.60;99.90
9043;DHT22;4556;49.150;8.808;2023-04-03T18:13:22;5.10;99.90
9043;DHT22;4556;49.150;8.808;2023-04-03T18:15:49;5.00;99.90
9043;DHT22;4556;49.150;8.808;2023-04-03T18:18:16;5.00;99.90
9043;DHT22;4556;49.150;8.808;2023-04-03T18:20:44;5.00;99.90
9043;DHT22;4556;49.150;8.808;2023-04-03T18:23:11;5.00;99.90
9043;DHT22;4556;49.150;8.808;2023-04-03T18:25:39;4.80;99.90
9043;DHT22;4556;49.150;8.808;2023-04-03T18:28:06;4.80;99.90
9043;DHT22;4556;49.150;8.808;2023-04-03T18:30:34;4.80;99.90
9043;DHT22;4556;49.150;8.808;2023-04-03T18:33:01;4.70;99.90
9043;DHT22;4556;49.150;8.808;2023-04-03T18:35:28;4.70;99.90
9043;DHT22;4556;49.150;8.808;2023-04-03T18:37:55;4.80;99.90
9043;DHT22;4556;49.150;8.808;2023-04-03T18:40:22;4.70;99.90
9043;DHT22;4556;49.150;8.808;2023-04-03T18:42:51;4.80;99.90
9043;DHT22;4556;49.150;8.808;2023-04-03T18:45:21;4.60;99.90
9043;DHT22;4556;49.150;8.808;2023-04-03T18:47:49;4.60;99.90
9043;DHT22;4556;49.150;8.808;2023-04-03T18:50:22;4.50;99.90
9043;DHT22;4556;49.150;8.808;2023-04-03T18:52:50;4.50;99.90
9043;DHT22;4556;49.150;8.808;2023-04-03T18:55:17;5.20;99.90
9043;DHT22;4556;49.150;8.808;2023-04-03T18:57:45;4.80;99.90
9043;DHT22;4556;49.150;8.808;2023-04-03T19:00:16;4.70;99.90
9043;DHT22;4556;49.150;8.808;2023-04-03T19:02:44;4.40;99.90
9043;DHT22;4556;49.150;8.808;2023-04-03T19:05:13;4.30;99.90
9043;DHT22;4556;49.150;8.808;2023-04-03T19:07:42;4.40;99.90
9043;DHT22;4556;49.150;8.808;2023-04-03T19:10:13;4.30;99.90
9043;DHT22;4556;49.150;8.808;2023-04-03T19:12:42;4.30;99.90
9043;DHT22;4556;49.150;8.808;2023-04-03T19:15:10;4.60;99.90
9043;DHT22;4556;49.150;8.808;2023-04-03T19:17:39;4.30;99.90
9043;DHT22;4556;49.150;8.808;2023-04-03T19:20:14;4.20;99.90
9043;DHT22;4556;49.150;8.808;2023-04-03T19:22:51;4.20;99.90
9043;DHT22;4556;49.150;8.808;2023-04-03T19:25:23;4.20;99.90
9043;DHT22;4556;49.150;8.808;2023-04-03T19:27:51;4.00;99.90
9043;DHT22;4556;49.150;8.808;2023-04-03T19:30:18;4.80;99.90
9043;DHT22;4556;49.150;8.808;2023-04-03T19:32:46;4.10;99.90
9043;DHT22;4556;49.150;8.808;2023-04-03T19:35:13;5.00;99.90
9043;DHT22;4556;49.150;8.808;2023-04-03T19:37:42;4.00;99.90
9043;DHT22;4556;49.150;8.808;2023-04-03T19:40:13;5.00;99.90
9043;DHT22;4556;49.150;8.808;2023-04-03T19:42:42;4.00;99.90
9043;DHT22;4556;49.150;8.808;2023-04-03T19:45:10;4.30;99.90
9043;DHT22;4556;49.150;8.808;2023-04-03T19:47:47;4.00;99.90
9043;DHT22;4556;49.150;8.808;2023-04-03T19:50:21;3.90;99.90
9043;DHT22;4556;49.150;8.808;2023-04-03T19:52:50;3.80;99.90
9043;DHT22;4556;49.150;8.808;2023-04-03T19:55:18;4.00;99.90
9043;DHT22;4556;49.150;8.808;2023-04-03T19:57:52;4.30;99.90
9043;DHT22;4556;49.150;8.808;2023-04-03T20:00:28;4.20;99.90
9043;DHT22;4556;49.150;8.808;2023-04-03T20:02:57;3.80;99.90
9043;DHT22;4556;49.150;8.808;2023-04-03T20:05:24;3.90;99.90
9043;DHT22;4556;49.150;8.808;2023-04-03T20:07:52;3.80;99.90
9043;DHT22;4556;49.150;8.808;2023-04-03T20:10:25;4.40;99.90
9043;DHT22;4556;49.150;8.808;2023-04-03T20:13:07;4.30;99.90
9043;DHT22;4556;49.150;8.808;2023-04-03T20:15:35;3.60;99.90
9043;DHT22;4556;49.150;8.808;2023-04-03T20:18:07;3.70;99.90
9043;DHT22;4556;49.150;8.808;2023-04-03T20:20:34;3.70;99.90
9043;DHT22;4556;49.150;8.808;2023-04-03T20:23:21;3.60;99.90
9043;DHT22;4556;49.150;8.808;2023-04-03T20:25:48;4.40;99.90
9043;DHT22;4556;49.150;8.808;2023-04-03T20:28:17;3.40;99.90
9043;DHT22;4556;49.150;8.808;2023-04-03T20:30:47;3.50;99.90
9043;DHT22;4556;49.150;8.808;2023-04-03T20:33:21;3.40;99.90
9043;DHT22;4556;49.150;8.808;2023-04-03T20:36:22;3.40;99.90
9043;DHT22;4556;49.150;8.808;2023-04-03T20:38:58;3.60;99.90
9043;DHT22;4556;49.150;8.808;2023-04-03T20:41:28;3.50;99.90
9043;DHT22;4556;49.150;8.808;2023-04-03T20:44:14;3.00;99.90
9043;DHT22;4556;49.150;8.808;2023-04-03T20:47:09;3.20;99.90
9043;DHT22;4556;49.150;8.808;2023-04-03T20:49:42;3.10;99.90
9043;DHT22;4556;49.150;8.808;2023-04-03T20:52:17;3.90;99.90
9043;DHT22;4556;49.150;8.808;2023-04-03T20:54:48;3.20;99.90
9043;DHT22;4556;49.150;8.808;2023-04-03T20:57:21;3.10;99.90
9043;DHT22;4556;49.150;8.808;2023-04-03T20:59:55;3.20;99.90
9043;DHT22;4556;49.150;8.808;2023-04-03T21:02:40;2.50;99.90
9043;DHT22;4556;49.150;8.808;2023-04-03T21:05:15;3.00;99.90
9043;DHT22;4556;49.150;8.808;2023-04-03T21:19:29;2.60;99.90
9043;DHT22;4556;49.150;8.808;2023-04-03T21:22:22;2.50;99.90
9043;DHT22;4556;49.150;8.808;2023-04-03T21:24:52;2.90;99.90
9043;DHT22;4556;49.150;8.808;2023-04-03T21:27:21;3.30;99.90
9043;DHT22;4556;49.150;8.808;2023-04-03T21:29:54;2.80;99.90
9043;DHT22;4556;49.150;8.808;2023-04-03T21:32:21;2.50;99.90
9043;DHT22;4556;49.150;8.808;2023-04-03T21:35:06;3.00;99.90
9043;DHT22;4556;49.150;8.808;2023-04-03T21:37:54;2.50;99.90
9043;DHT22;4556;49.150;8.808;2023-04-03T21:40:33;2.40;99.90
9043;DHT22;4556;49.150;8.808;2023-04-03T21:43:11;2.40;99.90
9043;DHT22;4556;49.150;8.808;2023-04-03T21:45:38;2.30;99.90
9043;DHT22;4556;49.150;8.808;2023-04-03T21:48:06;2.30;99.90
9043;DHT22;4556;49.150;8.808;2023-04-03T21:50:36;2.30;99.90
9043;DHT22;4556;49.150;8.808;2023-04-03T21:53:04;2.20;99.90
9043;DHT22;4556;49.150;8.808;2023-04-03T21:55:33;2.80;99.90
9043;DHT22;4556;49.150;8.808;2023-04-03T21:58:20;2.20;99.90
9043;DHT22;4556;49.150;8.808;2023-04-03T22:00:47;2.00;99.90
9043;DHT22;4556;49.150;8.808;2023-04-03T22:03:20;2.10;99.90
9043;DHT22;4556;49.150;8.808;2023-04-03T22:05:59;2.10;99.90
9043;DHT22;4556;49.150;8.808;2023-04-03T22:08:30;2.10;99.90
9043;DHT22;4556;49.150;8.808;2023-04-03T22:11:14;2.10;99.90
9043;DHT22;4556;49.150;8.808;2023-04-03T22:13:41;2.10;99.90
9043;DHT22;4556;49.150;8.808;2023-04-03T22:16:11;2.00;99.90
9043;DHT22;4556;49.150;8.808;2023-04-03T22:18:38;2.00;99.90
9043;DHT22;4556;49.150;8.808;2023-04-03T22:21:07;2.60;99.90
9043;DHT22;4556;49.150;8.808;2023-04-03T22:23:34;2.00;99.90
9043;DHT22;4556;49.150;8.808;2023-04-03T22:26:04;2.20;99.90
9043;DHT22;4556;49.150;8.808;2023-04-03T22:28:47;1.80;99.90
9043;DHT22;4556;49.150;8.808;2023-04-03T22:31:18;2.40;99.90
9043;DHT22;4556;49.150;8.808;2023-04-03T22:33:57;1.80;99.90
9043;DHT22;4556;49.150;8.808;2023-04-03T22:36:32;1.90;99.90
9043;DHT22;4556;49.150;8.808;2023-04-03T22:39:00;1.70;99.90
9043;DHT22;4556;49.150;8.808;2023-04-03T22:41:29;1.70;99.90
9043;DHT22;4556;49.150;8.808;2023-04-03T22:43:56;1.70;99.90
9043;DHT22;4556;49.150;8.808;2023-04-03T22:46:23;1.60;99.90
9043;DHT22;4556;49.150;8.808;2023-04-03T22:48:56;2.40;99.90
9043;DHT22;4556;49.150;8.808;2023-04-03T22:51:40;1.90;99.90
9043;DHT22;4556;49.150;8.808;2023-04-03T22:54:07;1.60;99.90
9043;DHT22;4556;49.150;8.808;2023-04-03T22:56:43;2.20;99.90
9043;DHT22;4556;49.150;8.808;2023-04-03T22:59:11;1.60;99.90
9043;DHT22;4556;49.150;8.808;2023-04-03T23:01:50;1.50;99.90
9043;DHT22;4556;49.150;8.808;2023-04-03T23:04:30;2.30;99.90
9043;DHT22;4556;49.150;8.808;2023-04-03T23:06:59;2.00;99.90
9043;DHT22;4556;49.150;8.808;2023-04-03T23:09:26;2.10;99.90
9043;DHT22;4556;49.150;8.808;2023-04-03T23:11:56;1.40;99.90
9043;DHT22;4556;49.150;8.808;2023-04-03T23:14:24;1.30;99.90
9043;DHT22;4556;49.150;8.808;2023-04-03T23:16:53;1.90;99.90
9043;DHT22;4556;49.150;8.808;2023-04-03T23:19:30;1.60;99.90
9043;DHT22;4556;49.150;8.808;2023-04-03T23:21:58;1.20;99.90
9043;DHT22;4556;49.150;8.808;2023-04-03T23:24:37;1.20;99.90
9043;DHT22;4556;49.150;8.808;2023-04-03T23:27:12;1.10;99.90
9043;DHT22;4556;49.150;8.808;2023-04-03T23:29:52;1.20;99.90
9043;DHT22;4556;49.150;8.808;2023-04-03T23:32:19;1.20;99.90
9043;DHT22;4556;49.150;8.808;2023-04-03T23:35:00;1.00;99.90
9043;DHT22;4556;49.150;8.808;2023-04-03T23:37:37;1.00;99.90
9043;DHT22;4556;49.150;8.808;2023-04-03T23:40:29;0.50;99.90
9043;DHT22;4556;49.150;8.808;2023-04-03T23:42:56;0.90;99.90
9043;DHT22;4556;49.150;8.808;2023-04-03T23:45:31;1.30;99.90
9043;DHT22;4556;49.150;8.808;2023-04-03T23:47:59;0.80;99.90
9043;DHT22;4556;49.150;8.808;2023-04-03T23:50:26;0.90;99.90
9043;DHT22;4556;49.150;8.808;2023-04-03T23:52:54;1.30;99.90
9043;DHT22;4556;49.150;8.808;2023-04-03T23:55:22;0.90;99.90
9043;DHT22;4556;49.150;8.808;2023-04-03T23:57:55;0.90;99.90
